Time;durP1;ratioP1;P1;durP2;ratioP2;P2;SDS_P1;SDS_P2;PMS_P1;PMS_P2;Temp;Humidity;BMP_temperature;BMP_pressure;BME280_temperature;BME280_humidity;BME280_pressure;Samples;Min_cycle;Max_cycle;Signal;HPM_P1;HPM_P2
2022/01/01 00:02:00;;;;;;;10.80;6.00;;;;;;;10.29;86.70;101039.81;4999503;28;20166;-84
2022/01/01 00:04:25;;;;;;;9.57;6.55;;;;;;;10.17;86.64;101013.84;4991633;28;20236;-83
2022/01/01 00:06:51;;;;;;;12.18;7.25;;;;;;;10.35;86.53;101022.47;5006133;28;20197;-82
2022/01/01 00:09:16;;;;;;;13.15;8.50;;;;;;;10.32;86.73;101012.81;4989723;28;20221;-84
2022/01/01 00:11:42;;;;;;;12.32;8.15;;;;;;;10.49;85.35;101026.34;4982697;28;20173;-82
2022/01/01 00:14:07;;;;;;;11.85;7.18;;;;;;;10.39;85.97;101022.91;4999240;28;20632;-83
2022/01/01 00:16:33;;;;;;;13.80;6.72;;;;;;;10.08;85.90;100962.63;4983697;28;20185;-79
2022/01/01 00:18:58;;;;;;;9.98;6.30;;;;;;;10.27;86.34;100997.75;4993203;28;20182;-83
2022/01/01 00:21:24;;;;;;;9.68;6.30;;;;;;;10.47;85.51;101026.22;4996271;28;20621;-81
2022/01/01 00:23:50;;;;;;;11.00;6.25;;;;;;;10.30;86.15;101014.31;4998865;28;20177;-78
2022/01/01 00:26:15;;;;;;;12.23;6.68;;;;;;;10.38;86.26;101015.97;5003976;28;20177;-78
2022/01/01 00:28:41;;;;;;;11.07;6.25;;;;;;;10.40;86.30;101036.59;4999175;28;20193;-79
2022/01/01 00:31:07;;;;;;;11.65;6.45;;;;;;;10.44;85.74;101023.38;5002496;28;20233;-80
2022/01/01 00:33:33;;;;;;;12.57;5.88;;;;;;;10.03;87.00;100978.31;4995306;28;20185;-83
2022/01/01 00:36:00;;;;;;;9.93;6.22;;;;;;;10.36;86.52;101031.94;5012151;28;20565;-81
2022/01/01 00:38:25;;;;;;;10.57;6.03;;;;;;;10.34;87.07;101036.94;4981908;28;20755;-83
2022/01/01 00:40:51;;;;;;;11.82;6.82;;;;;;;10.32;86.11;101025.63;4999071;28;20209;-78
2022/01/01 00:43:17;;;;;;;12.40;5.85;;;;;;;10.24;86.12;101017.91;5005154;28;20181;-84
2022/01/01 00:45:44;;;;;;;12.70;6.75;;;;;;;10.18;86.79;101003.75;4999601;28;20189;-80
2022/01/01 00:48:15;;;;;;;10.52;6.15;;;;;;;10.29;86.62;101022.78;4997691;28;20245;-83
2022/01/01 00:50:50;;;;;;;8.90;5.95;;;;;;;10.17;86.69;100991.72;5012405;28;20196;-83
2022/01/01 00:53:20;;;;;;;10.55;5.93;;;;;;;10.29;86.86;101009.97;5011355;28;20177;-82
2022/01/01 00:55:46;;;;;;;15.15;6.93;;;;;;;10.21;87.32;101009.94;4988396;28;20734;-82
2022/01/01 00:58:18;;;;;;;11.25;5.93;;;;;;;10.24;87.27;101003.44;4992487;28;20233;-81
2022/01/01 01:00:43;;;;;;;11.55;6.22;;;;;;;10.29;86.62;101002.28;4988635;28;20200;-79
2022/01/01 01:03:12;;;;;;;14.77;6.75;;;;;;;10.30;86.81;100981.03;5009607;28;20177;-84
2022/01/01 01:05:39;;;;;;;21.75;12.57;;;;;;;10.37;86.11;100988.56;4999116;28;20180;-82
2022/01/01 01:08:09;;;;;;;16.63;10.20;;;;;;;10.50;85.96;100985.53;5003134;28;20165;-81
2022/01/01 01:10:36;;;;;;;9.77;6.05;;;;;;;10.39;86.49;100988.69;4992460;28;20240;-86
2022/01/01 01:13:02;;;;;;;9.48;5.65;;;;;;;10.41;86.62;100984.66;5007665;28;20170;-83
2022/01/01 01:16:05;;;;;;;9.10;5.70;;;;;;;10.42;86.69;100986.44;4992815;28;20214;-84
2022/01/01 01:19:00;;;;;;;8.95;5.70;;;;;;;10.42;86.44;100981.31;4990754;28;20216;-84
2022/01/01 01:21:27;;;;;;;8.65;5.10;;;;;;;10.45;86.35;100983.28;5018678;28;20174;-88
2022/01/01 01:23:54;;;;;;;7.45;5.03;;;;;;;10.47;85.89;100979.22;5038740;28;20192;-84
2022/01/01 01:26:20;;;;;;;12.07;5.97;;;;;;;10.29;85.53;100945.03;5039378;28;20161;-84
2022/01/01 01:28:49;;;;;;;9.70;6.10;;;;;;;10.44;86.09;100984.94;5029723;28;20184;-84
2022/01/01 01:31:15;;;;;;;9.93;5.00;;;;;;;9.87;85.69;100873.50;5017311;28;20161;-85
2022/01/01 01:33:43;;;;;;;9.82;5.35;;;;;;;10.44;85.81;100991.72;5003561;28;20173;-85
2022/01/01 01:36:08;;;;;;;9.48;5.50;;;;;;;10.21;85.63;100931.44;5002333;28;20271;-84
2022/01/01 01:38:36;;;;;;;7.68;4.97;;;;;;;10.34;85.72;100948.91;5002343;28;20193;-79
2022/01/01 01:41:06;;;;;;;9.50;5.07;;;;;;;10.43;85.40;100975.41;5019588;28;20189;-82
2022/01/01 01:43:32;;;;;;;10.48;5.28;;;;;;;10.51;84.92;100981.31;4992223;28;20229;-83
2022/01/01 01:46:03;;;;;;;8.48;4.78;;;;;;;10.25;85.49;100941.25;4991602;28;20214;-84
2022/01/01 01:48:29;;;;;;;10.18;5.53;;;;;;;10.57;85.46;100981.91;4991141;28;20641;-84
2022/01/01 01:50:58;;;;;;;8.57;4.45;;;;;;;10.56;84.87;100981.00;5001608;28;20206;-78
2022/01/01 01:53:24;;;;;;;9.27;4.78;;;;;;;10.47;85.46;100948.47;5008420;28;20185;-84
2022/01/01 01:55:50;;;;;;;8.02;4.65;;;;;;;10.49;84.76;100945.28;5020670;28;20186;-79
2022/01/01 01:58:17;;;;;;;8.82;4.90;;;;;;;10.67;84.09;100965.72;5003873;28;20227;-81
2022/01/01 02:03:23;;;;;;;7.97;5.18;;;;;;;10.58;84.48;100969.22;4992134;28;20658;-86
2022/01/01 02:05:49;;;;;;;11.55;5.47;;;;;;;10.70;84.33;100961.78;4983683;28;20178;-82
2022/01/01 02:08:16;;;;;;;11.00;5.65;;;;;;;10.45;84.69;100940.63;4986220;28;20174;-82
2022/01/01 02:10:42;;;;;;;9.80;5.50;;;;;;;10.55;84.46;100983.41;4973072;28;20607;-82
2022/01/01 02:13:16;;;;;;;8.50;6.05;;;;;;;10.35;84.20;100932.81;4984280;28;20209;-87
2022/01/01 02:16:12;;;;;;;9.70;5.65;;;;;;;10.49;84.70;100955.50;4984097;28;20174;-80
2022/01/01 02:18:33;;;;;;;10.73;6.47;;;;;;;10.54;84.45;100968.78;5001733;28;20672;-81
2022/01/01 02:20:58;;;;;;;20.90;12.70;;;;;;;10.49;85.75;100973.44;4995330;28;20181;-83
2022/01/01 02:23:28;;;;;;;28.52;14.20;;;;;;;10.49;86.42;100962.31;5010983;28;20189;-77
2022/01/01 02:25:58;;;;;;;6.38;4.45;;;;;;;10.59;86.49;100972.66;5018541;28;20209;-86
2022/01/01 02:28:24;;;;;;;8.20;5.35;;;;;;;10.58;86.88;100969.22;5018415;28;20180;-81
2022/01/01 02:30:50;;;;;;;7.68;5.30;;;;;;;10.57;86.87;100967.41;5001443;28;20200;-78
2022/01/01 02:33:16;;;;;;;6.38;4.43;;;;;;;10.63;84.98;100961.97;5019254;28;20157;-80
2022/01/01 02:35:42;;;;;;;10.57;5.10;;;;;;;10.69;85.36;100949.75;5015787;28;20170;-79
2022/01/01 02:38:08;;;;;;;7.85;4.70;;;;;;;10.58;86.31;100952.94;5016334;28;20209;-75
2022/01/01 02:40:34;;;;;;;8.52;5.18;;;;;;;10.59;86.88;100947.03;5000607;28;20242;-78
2022/01/01 02:42:59;;;;;;;6.05;4.82;;;;;;;10.58;85.08;100946.16;5000544;28;20163;-79
2022/01/01 02:45:25;;;;;;;7.43;4.75;;;;;;;10.61;84.90;100948.09;5003703;28;20204;-84
2022/01/01 02:47:50;;;;;;;7.47;4.47;;;;;;;10.57;84.40;100943.47;5022935;28;20177;-81
2022/01/01 02:50:16;;;;;;;9.32;4.95;;;;;;;10.40;85.09;100919.72;5011788;28;20237;-87
2022/01/01 02:52:41;;;;;;;7.38;4.55;;;;;;;10.63;84.04;100937.25;5000254;28;20182;-84
2022/01/01 02:55:08;;;;;;;8.27;4.47;;;;;;;10.59;84.51;100941.91;5015800;28;20221;-84
2022/01/01 02:57:34;;;;;;;6.57;4.50;;;;;;;10.57;83.84;100944.34;5015254;28;20243;-78
2022/01/01 02:59:59;;;;;;;6.85;4.63;;;;;;;10.54;84.67;100938.03;5007631;28;20177;-83
2022/01/01 03:02:26;;;;;;;7.60;4.70;;;;;;;10.36;84.54;100907.34;5013248;28;20237;-82
2022/01/01 03:04:51;;;;;;;5.85;4.43;;;;;;;10.42;84.12;100924.06;4999807;28;20170;-82
2022/01/01 03:07:18;;;;;;;7.53;5.00;;;;;;;10.39;84.27;100905.06;4982458;28;20179;-82
2022/01/01 03:09:43;;;;;;;7.55;4.95;;;;;;;10.46;84.48;100937.28;4980384;28;20218;-77
2022/01/01 03:12:13;;;;;;;8.90;4.90;;;;;;;10.44;84.41;100948.19;4975437;28;20325;-83
2022/01/01 03:14:39;;;;;;;7.72;4.80;;;;;;;10.49;83.95;100941.81;4956927;28;20272;-82
2022/01/01 03:17:06;;;;;;;7.93;4.97;;;;;;;10.39;84.60;100930.69;4979114;28;20293;-82
2022/01/01 03:19:33;;;;;;;10.13;4.80;;;;;;;10.43;84.80;100928.41;4978056;28;20190;-87
2022/01/01 03:22:00;;;;;;;7.65;4.88;;;;;;;10.37;84.47;100916.84;4982758;28;20244;-83
2022/01/01 03:24:26;;;;;;;6.25;4.60;;;;;;;10.35;84.78;100918.34;4960456;28;20753;-83
2022/01/01 03:26:52;;;;;;;7.68;5.20;;;;;;;10.33;84.43;100917.28;4986831;28;20724;-83
2022/01/01 03:29:17;;;;;;;12.30;5.38;;;;;;;10.34;84.93;100924.25;4992410;28;20285;-87
2022/01/01 03:31:43;;;;;;;7.10;4.93;;;;;;;10.26;84.80;100922.59;4988361;28;20380;-87
2022/01/01 03:34:09;;;;;;;8.48;5.35;;;;;;;10.14;84.93;100901.78;4999594;28;20181;-82
2022/01/01 03:36:36;;;;;;;7.82;4.75;;;;;;;10.30;84.98;100911.88;4994229;28;20193;-79
2022/01/01 03:39:03;;;;;;;10.93;5.50;;;;;;;10.23;84.24;100919.69;4993322;28;20177;-83
2022/01/01 03:41:29;;;;;;;10.10;5.38;;;;;;;10.12;85.36;100903.31;4997143;28;20201;-85
2022/01/01 03:43:54;;;;;;;8.93;4.78;;;;;;;10.22;84.83;100920.47;4997481;28;20177;-79
2022/01/01 03:46:20;;;;;;;9.45;6.03;;;;;;;10.12;85.23;100913.56;4998369;28;20185;-85
2022/01/01 03:48:45;;;;;;;10.82;5.70;;;;;;;10.09;85.89;100915.81;4995741;28;20683;-81
2022/01/01 03:51:11;;;;;;;11.98;5.78;;;;;;;10.17;85.71;100919.09;4991740;28;20182;-84
2022/01/01 03:53:36;;;;;;;16.13;7.22;;;;;;;10.15;84.65;100918.03;4985376;28;20193;-86
2022/01/01 03:56:02;;;;;;;11.75;5.65;;;;;;;10.09;84.67;100909.78;4978532;28;20193;-83
2022/01/01 03:58:27;;;;;;;8.95;5.72;;;;;;;10.00;85.31;100902.13;4992425;28;20210;-80
2022/01/01 04:00:53;;;;;;;11.32;5.70;;;;;;;9.99;86.57;100915.66;4991904;28;20661;-81
2022/01/01 04:03:18;;;;;;;7.25;4.88;;;;;;;10.08;86.11;100920.78;4994596;28;20184;-78
2022/01/01 04:05:45;;;;;;;8.35;5.15;;;;;;;10.11;85.70;100916.84;4994650;28;20184;-79
2022/01/01 04:08:12;;;;;;;9.23;6.15;;;;;;;10.05;86.49;100913.69;4983517;28;20565;-82
2022/01/01 04:10:40;;;;;;;8.95;5.65;;;;;;;9.90;86.16;100887.50;4980815;28;20693;-81
2022/01/01 04:13:07;;;;;;;10.02;5.85;;;;;;;10.00;85.87;100904.69;4994572;28;20188;-81
2022/01/01 04:15:35;;;;;;;10.00;6.30;;;;;;;10.08;86.76;100910.53;4992917;28;20185;-80
2022/01/01 04:18:06;;;;;;;8.77;5.72;;;;;;;10.09;86.60;100914.88;4993537;28;20223;-84
2022/01/01 04:20:31;;;;;;;8.02;5.70;;;;;;;9.98;86.31;100883.16;4990860;28;20180;-83
2022/01/01 04:22:57;;;;;;;9.82;5.82;;;;;;;10.09;86.48;100891.84;4991829;28;20189;-80
2022/01/01 04:25:24;;;;;;;9.93;6.20;;;;;;;10.14;84.87;100876.19;4989937;28;20562;-78
2022/01/01 04:27:51;;;;;;;13.10;6.10;;;;;;;10.26;85.54;100907.22;4989493;28;20217;-83
2022/01/01 04:30:17;;;;;;;11.32;6.10;;;;;;;10.21;86.16;100908.41;4989341;28;20192;-89
2022/01/01 04:32:43;;;;;;;9.80;6.35;;;;;;;10.21;85.77;100908.41;4991118;28;20177;-86
2022/01/01 04:35:09;;;;;;;8.60;5.70;;;;;;;10.12;85.36;100900.75;4991919;28;20189;-90
2022/01/01 04:37:35;;;;;;;11.52;6.45;;;;;;;10.31;85.17;100906.03;4992614;28;20239;-90
2022/01/01 04:40:01;;;;;;;11.73;5.90;;;;;;;10.35;85.10;100902.97;4973872;28;20180;-82
2022/01/01 04:42:26;;;;;;;11.23;6.72;;;;;;;10.29;85.20;100886.13;4990160;28;20181;-87
2022/01/01 04:44:52;;;;;;;10.18;5.95;;;;;;;10.35;84.67;100882.50;4994519;28;20189;-88
2022/01/01 04:47:18;;;;;;;13.05;6.63;;;;;;;10.33;85.30;100880.53;5002231;28;20279;-86
2022/01/01 04:49:44;;;;;;;13.45;7.38;;;;;;;10.60;100.00;100882.25;4988466;28;20211;-86
2022/01/01 04:52:09;;;;;;;10.88;6.95;;;;;;;10.80;99.67;100881.53;4979791;28;20247;-84
2022/01/01 04:54:39;;;;;;;12.43;7.68;;;;;;;10.78;88.69;100911.28;4986194;28;20205;-80
2022/01/01 04:57:05;;;;;;;12.90;7.65;;;;;;;10.70;85.86;100915.66;4990710;28;20201;-80
2022/01/01 04:59:30;;;;;;;12.77;8.20;;;;;;;10.64;85.13;100931.34;4977935;28;20192;-81
2022/01/01 05:01:56;;;;;;;13.95;7.85;;;;;;;10.59;84.77;100927.47;5005163;28;20188;-77
2022/01/01 05:04:21;;;;;;;19.02;10.48;;;;;;;10.48;84.07;100919.53;4986657;28;20532;-81
2022/01/01 05:06:49;;;;;;;12.20;7.82;;;;;;;10.50;84.19;100943.59;4975654;28;20696;-80
2022/01/01 05:09:16;;;;;;;12.20;7.20;;;;;;;10.37;85.18;100939.91;4976069;28;20218;-83
2022/01/01 05:11:42;;;;;;;13.35;7.30;;;;;;;10.32;85.17;100955.56;4979797;28;20189;-78
2022/01/01 05:14:08;;;;;;;11.77;6.88;;;;;;;10.48;89.87;100966.53;4991627;28;20599;-79
2022/01/01 05:16:33;;;;;;;12.35;6.13;;;;;;;10.55;89.34;100980.81;4991166;28;20186;-80
2022/01/01 05:18:59;;;;;;;13.60;7.35;;;;;;;10.34;86.70;100960.09;4986746;28;20178;-79
2022/01/01 05:21:25;;;;;;;12.02;6.72;;;;;;;10.11;85.11;100960.38;4969642;28;20181;-80
2022/01/01 05:23:50;;;;;;;11.90;7.25;;;;;;;9.96;86.03;100940.97;4992702;28;20193;-80
2022/01/01 05:26:17;;;;;;;10.90;6.95;;;;;;;10.01;85.87;100956.78;4974475;28;20260;-82
2022/01/01 05:28:44;;;;;;;14.60;6.82;;;;;;;9.99;86.25;100973.66;4981232;28;20244;-79
2022/01/01 05:31:10;;;;;;;12.50;6.60;;;;;;;9.90;86.61;100971.97;4980882;28;20273;-79
2022/01/01 05:33:36;;;;;;;11.68;6.97;;;;;;;9.77;87.72;100963.84;4990254;28;20169;-77
2022/01/01 05:36:01;;;;;;;11.07;7.07;;;;;;;9.74;87.46;100957.53;4992935;28;20185;-78
2022/01/01 05:38:27;;;;;;;11.02;6.60;;;;;;;9.56;88.39;100952.38;4993050;28;20210;-79
2022/01/01 05:40:53;;;;;;;11.48;7.05;;;;;;;9.63;88.21;100961.59;4988434;28;20680;-82
2022/01/01 05:43:20;;;;;;;12.90;6.93;;;;;;;9.54;89.64;100966.69;4986285;28;20181;-82
2022/01/01 05:45:46;;;;;;;14.27;7.53;;;;;;;9.48;88.71;100948.19;4973696;28;20284;-77
2022/01/01 05:48:12;;;;;;;13.57;7.72;;;;;;;9.55;88.81;100971.06;4993043;28;20268;-81
2022/01/01 05:50:37;;;;;;;8.73;6.65;;;;;;;9.57;88.95;100974.69;4987966;28;20323;-80
2022/01/01 05:53:03;;;;;;;13.90;7.38;;;;;;;9.41;89.45;100945.78;4975051;28;20564;-81
2022/01/01 05:55:28;;;;;;;11.95;7.82;;;;;;;9.49;89.50;100967.88;4975009;28;20221;-82
2022/01/01 05:57:54;;;;;;;13.32;7.97;;;;;;;9.38;89.88;100966.81;4975327;28;20284;-82
2022/01/01 06:00:20;;;;;;;15.20;8.52;;;;;;;9.48;90.52;100979.78;4977091;28;20174;-85
2022/01/01 06:02:45;;;;;;;14.43;8.45;;;;;;;9.57;90.25;100984.91;4987926;28;20193;-82
2022/01/01 06:05:12;;;;;;;13.85;8.40;;;;;;;9.66;92.67;100984.94;4979870;28;20174;-81
2022/01/01 06:07:38;;;;;;;18.63;9.40;;;;;;;9.89;99.19;100988.09;4974683;28;20563;-82
2022/01/01 06:10:04;;;;;;;19.98;10.38;;;;;;;10.01;91.17;100984.94;4976633;28;20213;-82
2022/01/01 06:12:30;;;;;;;13.82;9.40;;;;;;;10.20;95.65;100991.09;4992160;28;20181;-83
2022/01/01 06:14:57;;;;;;;18.08;10.77;;;;;;;10.20;89.63;100978.31;4986834;28;20705;-82
2022/01/01 06:17:22;;;;;;;14.32;8.48;;;;;;;10.19;88.49;100958.59;4982701;28;20210;-79
2022/01/01 06:19:48;;;;;;;14.80;8.88;;;;;;;10.39;86.66;100981.03;4974845;28;20617;-79
2022/01/01 06:22:13;;;;;;;12.98;8.80;;;;;;;10.22;85.48;100966.56;4975566;28;20238;-81
2022/01/01 06:24:39;;;;;;;14.43;9.07;;;;;;;10.35;84.55;101004.53;4984303;28;20742;-80
2022/01/01 06:27:05;;;;;;;16.70;10.00;;;;;;;10.15;84.51;100995.75;4992386;28;20201;-82
2022/01/01 06:29:30;;;;;;;15.32;8.48;;;;;;;10.06;86.55;100994.91;4994581;28;20649;-85
2022/01/01 06:31:55;;;;;;;17.77;9.27;;;;;;;10.02;86.70;100997.00;4988841;28;20190;-83
2022/01/01 06:34:22;;;;;;;18.17;10.45;;;;;;;10.03;85.66;100991.09;4977473;28;20643;-88
2022/01/01 06:36:51;;;;;;;14.70;9.65;;;;;;;9.72;85.99;100942.03;4994537;28;20177;-84
2022/01/01 06:39:17;;;;;;;15.95;9.90;;;;;;;9.84;87.20;100988.38;5000702;28;20173;-85
2022/01/01 06:41:42;;;;;;;19.15;10.88;;;;;;;9.75;87.15;100988.41;4993953;28;20208;-87
2022/01/01 06:44:08;;;;;;;16.15;10.48;;;;;;;9.62;88.56;100991.38;4990226;28;20653;-84
2022/01/01 06:46:33;;;;;;;21.25;10.35;;;;;;;9.69;87.89;101000.59;4992877;28;20309;-85
2022/01/01 06:48:59;;;;;;;16.67;10.70;;;;;;;9.55;88.27;101005.97;4983578;28;20165;-85
2022/01/01 06:51:24;;;;;;;17.30;10.68;;;;;;;9.56;88.60;100988.19;4990368;28;20603;-87
2022/01/01 06:53:50;;;;;;;16.33;10.15;;;;;;;9.57;88.16;101020.72;4983752;28;20284;-87
2022/01/01 06:56:17;;;;;;;15.65;9.80;;;;;;;9.52;88.90;101038.91;4999650;28;20588;-86
2022/01/01 06:58:44;;;;;;;16.38;9.65;;;;;;;9.57;89.66;101040.31;5010671;28;20201;-84
2022/01/01 07:01:10;;;;;;;18.00;11.02;;;;;;;9.31;89.07;101006.97;5003084;28;20174;-84
2022/01/01 07:03:36;;;;;;;20.50;10.65;;;;;;;9.58;88.78;101044.66;4993198;28;20188;-85
2022/01/01 07:06:01;;;;;;;21.85;11.65;;;;;;;9.52;88.79;101054.28;4992331;28;20189;-88
2022/01/01 07:08:27;;;;;;;24.52;13.32;;;;;;;9.31;90.01;101019.75;4994698;28;20633;-86
2022/01/01 07:10:53;;;;;;;23.70;14.32;;;;;;;9.59;89.25;101046.44;4980224;28;20264;-87
2022/01/01 07:13:18;;;;;;;25.08;13.95;;;;;;;9.64;88.80;101056.41;4979293;28;20222;-86
2022/01/01 07:15:44;;;;;;;21.83;12.45;;;;;;;9.61;88.95;101060.31;4987798;28;20700;-85
2022/01/01 07:18:10;;;;;;;19.52;11.23;;;;;;;9.61;89.07;101055.19;4981862;28;20200;-84
2022/01/01 07:20:38;;;;;;;18.42;10.00;;;;;;;9.63;88.53;101051.16;4957315;28;20182;-86
2022/01/01 07:23:03;;;;;;;18.73;10.98;;;;;;;9.56;88.53;101029.13;4979160;28;20174;-87
2022/01/01 07:25:29;;;;;;;24.90;11.65;;;;;;;9.59;88.47;101046.44;4971692;28;20237;-86
2022/01/01 07:27:55;;;;;;;22.83;12.68;;;;;;;9.55;89.03;101037.56;4974531;28;20182;-86
2022/01/01 07:30:21;;;;;;;18.70;12.05;;;;;;;9.56;88.61;101030.78;4974407;28;20181;-85
2022/01/01 07:32:48;;;;;;;17.52;10.60;;;;;;;9.53;89.07;101043.28;4975984;28;20182;-85
2022/01/01 07:35:16;;;;;;;19.10;10.93;;;;;;;9.59;88.91;101021.78;4958293;28;20190;-86
2022/01/01 07:37:41;;;;;;;18.33;11.07;;;;;;;9.56;88.50;101013.78;4989880;28;20205;-89
2022/01/01 07:40:10;;;;;;;18.48;10.50;;;;;;;9.75;88.07;101036.09;4976042;28;20642;-86
2022/01/01 07:42:36;;;;;;;15.18;10.05;;;;;;;9.72;86.66;101000.91;4975649;28;20169;-88
2022/01/01 07:45:01;;;;;;;18.40;10.85;;;;;;;9.76;86.53;101037.94;4991478;28;20595;-86
2022/01/01 07:47:28;;;;;;;13.93;10.00;;;;;;;9.81;86.73;101047.88;4994384;28;20177;-85
2022/01/01 07:49:53;;;;;;;18.33;10.48;;;;;;;9.60;87.07;101015.91;4986959;28;20173;-88
2022/01/01 07:52:19;;;;;;;15.63;10.48;;;;;;;9.86;86.72;101056.00;4974715;28;20217;-86
2022/01/01 07:54:47;;;;;;;15.85;10.13;;;;;;;9.92;85.35;101056.63;4994272;28;20209;-85
2022/01/01 07:57:13;;;;;;;16.30;10.63;;;;;;;9.85;85.61;101042.31;4998524;28;20227;-85
2022/01/01 07:59:38;;;;;;;17.88;11.02;;;;;;;9.99;85.35;101069.25;4996089;28;20180;-84
2022/01/01 08:02:04;;;;;;;18.95;10.13;;;;;;;10.05;84.73;101066.41;4980425;28;20605;-87
2022/01/01 08:04:32;;;;;;;15.02;9.80;;;;;;;9.87;85.64;101038.22;5000604;28;20186;-88
2022/01/01 08:06:57;;;;;;;16.80;10.85;;;;;;;10.09;85.09;101051.53;4986925;28;20193;-86
2022/01/01 08:09:23;;;;;;;17.23;10.52;;;;;;;10.35;84.24;101056.66;4992550;28;20237;-86
2022/01/01 08:11:51;;;;;;;18.55;10.30;;;;;;;10.42;83.17;101044.47;5000168;28;20217;-86
2022/01/01 08:14:23;;;;;;;19.33;11.07;;;;;;;10.32;81.21;101002.56;4990566;28;20212;-86
2022/01/01 08:17:08;;;;;;;16.85;9.88;;;;;;;10.58;80.44;101047.75;5002149;28;20176;-87
2022/01/01 08:19:33;;;;;;;13.57;9.63;;;;;;;10.73;79.92;101058.59;4973468;28;20257;-84
2022/01/01 08:22:00;;;;;;;19.25;10.93;;;;;;;10.51;79.99;101040.22;4993040;28;20254;-84
2022/01/01 08:24:26;;;;;;;14.48;9.90;;;;;;;10.67;80.76;101053.75;4986932;28;20181;-87
2022/01/01 08:26:51;;;;;;;20.60;10.93;;;;;;;10.52;79.90;101001.94;4998518;28;20248;-85
2022/01/01 08:29:17;;;;;;;21.23;11.38;;;;;;;10.85;79.65;101052.97;5005513;28;20188;-86
2022/01/01 08:31:43;;;;;;;15.93;9.88;;;;;;;10.84;80.60;101043.47;4986053;28;20240;-86
2022/01/01 08:34:08;;;;;;;17.92;10.35;;;;;;;10.94;79.78;101050.38;5003274;28;20211;-87
2022/01/01 08:36:34;;;;;;;16.88;11.07;;;;;;;10.82;79.62;101008.19;5002718;28;20181;-85
2022/01/01 08:38:59;;;;;;;26.48;14.13;;;;;;;11.08;78.51;101033.75;4987057;28;20753;-86
2022/01/01 08:41:25;;;;;;;17.25;11.38;;;;;;;11.03;79.04;101019.59;4998078;28;20169;-87
2022/01/01 08:43:52;;;;;;;31.17;16.75;;;;;;;11.09;79.12;101027.88;5002584;28;20181;-88
2022/01/01 08:46:19;;;;;;;29.90;14.93;;;;;;;11.26;78.77;101038.03;5003795;28;20228;-88
2022/01/01 08:48:44;;;;;;;36.50;17.88;;;;;;;11.18;78.83;100994.47;5002692;28;20185;-86
2022/01/01 08:51:16;;;;;;;38.38;19.23;;;;;;;11.61;77.29;101037.84;4963455;28;20181;-85
2022/01/01 08:53:42;;;;;;;26.10;15.13;;;;;;;11.69;76.68;101020.63;4969732;28;20688;-86
2022/01/01 08:56:09;;;;;;;27.63;13.02;;;;;;;11.61;75.91;100981.38;4998744;28;20192;-85
2022/01/01 08:58:39;;;;;;;24.83;14.15;;;;;;;11.98;76.15;101028.44;4997403;28;20236;-85
2022/01/01 09:01:06;;;;;;;23.73;14.43;;;;;;;12.14;75.00;101025.59;4987766;28;20231;-86
2022/01/01 09:03:34;;;;;;;29.77;17.58;;;;;;;12.24;74.76;101026.56;4994494;28;20240;-85
2022/01/01 09:06:01;;;;;;;18.67;11.65;;;;;;;12.33;73.62;101023.91;4991563;28;20567;-84
2022/01/01 09:08:28;;;;;;;19.13;11.45;;;;;;;12.38;73.64;101034.59;5001038;28;20181;-87
2022/01/01 09:10:53;;;;;;;18.52;11.73;;;;;;;12.33;73.64;101025.56;4996856;28;20220;-87
2022/01/01 09:13:19;;;;;;;22.02;12.68;;;;;;;12.55;73.01;101024.13;4986831;28;20192;-87
2022/01/01 09:15:44;;;;;;;20.40;12.75;;;;;;;12.66;72.80;101030.25;4990314;28;20336;-86
2022/01/01 09:18:10;;;;;;;21.05;11.95;;;;;;;12.60;72.68;100993.72;4978706;28;20590;-82
2022/01/01 09:20:35;;;;;;;22.13;13.18;;;;;;;12.89;72.17;101024.53;4989187;28;20181;-86
2022/01/01 09:23:02;;;;;;;17.60;11.38;;;;;;;13.05;71.73;101024.19;5000060;28;20236;-82
2022/01/01 09:25:28;;;;;;;18.80;10.40;;;;;;;13.15;70.84;101021.66;4988829;28;20197;-86
2022/01/01 09:27:53;;;;;;;15.00;9.55;;;;;;;13.18;70.44;101012.53;4999302;28;20580;-83
2022/01/01 09:30:20;;;;;;;15.45;9.63;;;;;;;13.18;70.64;101012.53;5001334;28;20240;-82
2022/01/01 09:32:45;;;;;;;16.30;9.93;;;;;;;13.12;70.73;100994.00;5003722;28;20208;-85
2022/01/01 09:35:11;;;;;;;16.55;10.00;;;;;;;12.85;70.77;100966.78;4988570;28;20182;-86
2022/01/01 09:37:36;;;;;;;16.88;9.95;;;;;;;12.70;71.58;100973.16;4993149;28;20325;-83
2022/01/01 09:40:04;;;;;;;16.90;10.93;;;;;;;12.77;72.64;101011.50;4985159;28;20194;-82
2022/01/01 09:42:30;;;;;;;15.40;9.95;;;;;;;12.67;73.03;100996.03;4989819;28;20597;-81
2022/01/01 09:44:58;;;;;;;15.90;10.32;;;;;;;12.29;73.58;100913.91;4983146;28;20240;-85
2022/01/01 09:47:25;;;;;;;18.92;12.50;;;;;;;12.66;73.19;100971.13;4995499;28;20181;-80
2022/01/01 09:49:51;;;;;;;18.90;11.43;;;;;;;12.68;72.68;100979.88;4981675;28;20197;-85
2022/01/01 09:52:17;;;;;;;17.10;11.07;;;;;;;12.35;73.22;100893.91;4962026;28;20186;-82
2022/01/01 09:54:43;;;;;;;15.63;10.45;;;;;;;12.94;72.73;100997.56;4977682;28;20193;-83
2022/01/01 09:57:10;;;;;;;15.95;10.43;;;;;;;12.91;72.63;100979.28;4991696;28;20283;-90
2022/01/01 09:59:37;;;;;;;21.52;12.40;;;;;;;13.16;72.84;100992.59;4976772;28;20568;-89
2022/01/01 10:02:04;;;;;;;20.70;11.63;;;;;;;13.33;71.84;100986.31;4987340;28;20276;-84
2022/01/01 10:04:51;;;;;;;16.45;9.27;;;;;;;13.24;70.87;100972.63;4978628;28;20613;-83
2022/01/01 10:07:25;;;;;;;19.25;10.75;;;;;;;13.25;71.17;100967.69;4976709;28;20573;-83
2022/01/01 10:09:51;;;;;;;19.90;12.32;;;;;;;13.62;70.80;101002.56;4978314;28;20816;-85
2022/01/01 10:12:19;;;;;;;21.23;11.55;;;;;;;13.79;70.86;100983.38;4978338;28;20225;-84
2022/01/01 10:14:48;;;;;;;20.95;13.27;;;;;;;13.94;69.06;100960.56;4961322;28;20189;-83
2022/01/01 10:17:21;;;;;;;16.02;9.77;;;;;;;14.38;67.81;100995.88;4979020;28;20265;-83
2022/01/01 10:19:48;;;;;;;17.17;10.65;;;;;;;14.39;67.55;100943.53;4977960;28;20177;-83
2022/01/01 10:22:18;;;;;;;17.27;10.60;;;;;;;14.64;67.31;100975.72;4967435;28;20280;-83
2022/01/01 10:27:46;;;;;;;12.80;7.95;;;;;;;14.69;67.51;100942.53;4970014;28;20239;-80
2022/01/01 10:30:20;;;;;;;13.52;7.75;;;;;;;15.08;67.25;100985.13;4982799;28;20601;-81
2022/01/01 10:33:09;;;;;;;17.77;11.80;;;;;;;15.36;67.06;100983.91;4991530;28;20179;-82
2022/01/01 10:35:49;;;;;;;14.45;8.20;;;;;;;15.29;65.31;100955.81;4995963;28;20184;-84
2022/01/01 10:38:33;;;;;;;12.05;7.65;;;;;;;15.42;65.41;100986.97;5002740;28;20191;-80
2022/01/01 10:41:07;;;;;;;12.55;8.40;;;;;;;15.44;66.44;100959.56;4994596;28;20177;-83
2022/01/01 10:43:37;;;;;;;14.13;8.48;;;;;;;15.66;65.50;100982.75;5008088;28;20181;-83
2022/01/01 10:46:04;;;;;;;19.80;10.50;;;;;;;15.60;66.09;100977.13;5006572;28;20241;-82
2022/01/01 10:48:56;;;;;;;14.93;10.02;;;;;;;15.22;66.23;100933.78;4998531;28;20173;-81
2022/01/01 10:51:21;;;;;;;9.65;6.70;;;;;;;15.46;66.48;100973.50;5008711;28;20158;-80
2022/01/01 10:53:59;;;;;;;11.52;6.57;;;;;;;15.76;66.56;100988.63;5020454;28;20720;-83
2022/01/01 10:56:25;;;;;;;10.82;6.75;;;;;;;15.84;65.29;100984.97;5011015;28;20201;-86
2022/01/01 10:59:00;;;;;;;9.60;6.55;;;;;;;15.58;66.05;100950.28;5011006;28;20202;-83
2022/01/01 11:01:26;;;;;;;10.73;6.88;;;;;;;15.43;66.74;100952.59;4990581;28;20189;-82
2022/01/01 11:03:54;;;;;;;8.43;5.97;;;;;;;15.28;67.82;100960.88;5012743;28;20173;-83
2022/01/01 11:06:21;;;;;;;9.13;6.25;;;;;;;14.34;68.79;100863.28;5016783;28;20181;-84
2022/01/01 11:08:46;;;;;;;11.82;6.57;;;;;;;14.61;69.98;100949.69;5014802;28;20193;-81
2022/01/01 11:11:15;;;;;;;12.13;7.90;;;;;;;14.43;70.82;100948.19;5015190;28;20213;-82
2022/01/01 11:13:42;;;;;;;10.70;6.85;;;;;;;14.43;71.90;100967.13;5012871;28;20173;-84
2022/01/01 11:16:09;;;;;;;10.25;6.60;;;;;;;14.27;72.67;100967.56;5013743;28;20173;-83
2022/01/01 11:18:36;;;;;;;10.15;6.32;;;;;;;13.26;73.99;100824.47;4992757;28;20213;-83
2022/01/01 11:21:04;;;;;;;9.57;6.60;;;;;;;13.90;73.73;100945.63;5007608;28;20199;-85
2022/01/01 11:23:31;;;;;;;10.25;6.25;;;;;;;13.44;74.88;100907.47;5007045;28;20193;-85
2022/01/01 11:25:57;;;;;;;9.68;6.97;;;;;;;13.11;76.04;100866.13;5009645;28;20182;-87